sensor_id;sensor_type;location;lat;lon;timestamp;P1;durP1;ratioP1;P2;durP2;ratioP2
67554;SDS011;54385;53.516;49.456;2024-02-21T00:02:10;3.50;;;2.78;;
67554;SDS011;54385;53.516;49.456;2024-02-21T00:04:37;3.60;;;2.75;;
67554;SDS011;54385;53.516;49.456;2024-02-21T00:07:04;3.58;;;2.95;;
67554;SDS011;54385;53.516;49.456;2024-02-21T00:09:31;3.70;;;2.60;;
67554;SDS011;54385;53.516;49.456;2024-02-21T00:11:57;3.33;;;2.55;;
67554;SDS011;54385;53.516;49.456;2024-02-21T00:14:25;3.72;;;2.75;;
67554;SDS011;54385;53.516;49.456;2024-02-21T00:16:51;4.25;;;3.08;;
67554;SDS011;54385;53.516;49.456;2024-02-21T00:19:18;3.78;;;2.58;;
67554;SDS011;54385;53.516;49.456;2024-02-21T00:21:44;3.72;;;2.70;;
67554;SDS011;54385;53.516;49.456;2024-02-21T00:24:10;4.35;;;3.08;;
67554;SDS011;54385;53.516;49.456;2024-02-21T00:26:37;4.03;;;2.83;;
67554;SDS011;54385;53.516;49.456;2024-02-21T00:29:03;4.10;;;3.05;;
67554;SDS011;54385;53.516;49.456;2024-02-21T00:31:31;3.63;;;2.80;;
67554;SDS011;54385;53.516;49.456;2024-02-21T00:33:57;3.92;;;2.85;;
67554;SDS011;54385;53.516;49.456;2024-02-21T00:36:24;3.25;;;2.53;;
67554;SDS011;54385;53.516;49.456;2024-02-21T00:38:50;3.95;;;2.72;;
67554;SDS011;54385;53.516;49.456;2024-02-21T00:41:16;3.55;;;2.80;;
67554;SDS011;54385;53.516;49.456;2024-02-21T00:43:43;3.53;;;2.80;;
67554;SDS011;54385;53.516;49.456;2024-02-21T00:46:10;3.15;;;2.80;;
67554;SDS011;54385;53.516;49.456;2024-02-21T00:48:36;4.03;;;3.13;;
67554;SDS011;54385;53.516;49.456;2024-02-21T00:51:03;3.58;;;2.40;;
67554;SDS011;54385;53.516;49.456;2024-02-21T00:53:29;3.30;;;2.90;;
67554;SDS011;54385;53.516;49.456;2024-02-21T00:55:56;3.50;;;2.88;;
67554;SDS011;54385;53.516;49.456;2024-02-21T00:58:22;4.05;;;2.88;;
67554;SDS011;54385;53.516;49.456;2024-02-21T01:00:49;4.10;;;2.67;;
67554;SDS011;54385;53.516;49.456;2024-02-21T01:03:15;3.97;;;2.53;;
67554;SDS011;54385;53.516;49.456;2024-02-21T01:05:42;3.35;;;2.60;;
67554;SDS011;54385;53.516;49.456;2024-02-21T01:08:08;3.00;;;2.40;;
67554;SDS011;54385;53.516;49.456;2024-02-21T01:10:35;3.70;;;2.60;;
67554;SDS011;54385;53.516;49.456;2024-02-21T01:13:01;4.25;;;2.85;;
67554;SDS011;54385;53.516;49.456;2024-02-21T01:15:28;3.45;;;3.00;;
67554;SDS011;54385;53.516;49.456;2024-02-21T01:17:54;3.55;;;2.65;;
67554;SDS011;54385;53.516;49.456;2024-02-21T01:20:21;3.67;;;2.55;;
67554;SDS011;54385;53.516;49.456;2024-02-21T01:22:47;2.95;;;2.45;;
67554;SDS011;54385;53.516;49.456;2024-02-21T01:25:13;3.33;;;2.55;;
67554;SDS011;54385;53.516;49.456;2024-02-21T01:27:40;3.13;;;2.55;;
67554;SDS011;54385;53.516;49.456;2024-02-21T01:30:07;2.85;;;2.35;;
67554;SDS011;54385;53.516;49.456;2024-02-21T01:32:36;3.38;;;2.78;;
67554;SDS011;54385;53.516;49.456;2024-02-21T01:35:02;4.60;;;2.70;;
67554;SDS011;54385;53.516;49.456;2024-02-21T01:37:29;2.83;;;2.40;;
67554;SDS011;54385;53.516;49.456;2024-02-21T01:39:55;3.80;;;2.38;;
67554;SDS011;54385;53.516;49.456;2024-02-21T01:42:22;3.63;;;2.50;;
67554;SDS011;54385;53.516;49.456;2024-02-21T01:44:49;3.25;;;2.80;;
67554;SDS011;54385;53.516;49.456;2024-02-21T01:47:15;2.95;;;2.22;;
67554;SDS011;54385;53.516;49.456;2024-02-21T01:49:42;3.28;;;2.50;;
67554;SDS011;54385;53.516;49.456;2024-02-21T01:52:09;2.95;;;2.42;;
67554;SDS011;54385;53.516;49.456;2024-02-21T01:54:41;3.42;;;2.40;;
67554;SDS011;54385;53.516;49.456;2024-02-21T01:57:08;3.38;;;2.55;;
67554;SDS011;54385;53.516;49.456;2024-02-21T01:59:35;4.32;;;2.67;;
67554;SDS011;54385;53.516;49.456;2024-02-21T02:02:01;3.05;;;2.60;;
67554;SDS011;54385;53.516;49.456;2024-02-21T02:04:28;2.28;;;2.05;;
67554;SDS011;54385;53.516;49.456;2024-02-21T02:06:55;3.45;;;2.50;;
67554;SDS011;54385;53.516;49.456;2024-02-21T02:09:21;3.47;;;2.42;;
67554;SDS011;54385;53.516;49.456;2024-02-21T02:11:48;3.83;;;2.40;;
67554;SDS011;54385;53.516;49.456;2024-02-21T02:14:14;3.22;;;2.10;;
67554;SDS011;54385;53.516;49.456;2024-02-21T02:16:41;3.63;;;2.55;;
67554;SDS011;54385;53.516;49.456;2024-02-21T02:19:07;3.17;;;2.38;;
67554;SDS011;54385;53.516;49.456;2024-02-21T02:21:39;3.20;;;2.42;;
67554;SDS011;54385;53.516;49.456;2024-02-21T02:24:07;3.50;;;2.60;;
67554;SDS011;54385;53.516;49.456;2024-02-21T02:26:34;3.35;;;2.45;;
67554;SDS011;54385;53.516;49.456;2024-02-21T02:29:03;2.95;;;2.20;;
67554;SDS011;54385;53.516;49.456;2024-02-21T02:31:30;3.70;;;2.47;;
67554;SDS011;54385;53.516;49.456;2024-02-21T02:33:57;3.65;;;2.25;;
67554;SDS011;54385;53.516;49.456;2024-02-21T02:36:23;3.20;;;2.38;;
67554;SDS011;54385;53.516;49.456;2024-02-21T02:38:49;3.70;;;2.85;;
67554;SDS011;54385;53.516;49.456;2024-02-21T02:41:16;3.95;;;2.25;;
67554;SDS011;54385;53.516;49.456;2024-02-21T02:43:42;3.08;;;2.15;;
67554;SDS011;54385;53.516;49.456;2024-02-21T02:46:09;3.10;;;2.40;;
67554;SDS011;54385;53.516;49.456;2024-02-21T02:48:36;2.90;;;2.03;;
67554;SDS011;54385;53.516;49.456;2024-02-21T02:51:04;3.58;;;2.38;;
67554;SDS011;54385;53.516;49.456;2024-02-21T02:53:33;2.30;;;1.92;;
67554;SDS011;54385;53.516;49.456;2024-02-21T02:56:03;2.25;;;1.95;;
67554;SDS011;54385;53.516;49.456;2024-02-21T02:58:30;2.63;;;2.13;;
67554;SDS011;54385;53.516;49.456;2024-02-21T03:00:56;2.88;;;1.92;;
67554;SDS011;54385;53.516;49.456;2024-02-21T03:03:23;2.40;;;2.15;;
67554;SDS011;54385;53.516;49.456;2024-02-21T03:05:49;3.00;;;2.35;;
67554;SDS011;54385;53.516;49.456;2024-02-21T03:08:19;2.90;;;2.17;;
67554;SDS011;54385;53.516;49.456;2024-02-21T03:10:47;2.28;;;2.00;;
67554;SDS011;54385;53.516;49.456;2024-02-21T03:13:15;2.95;;;2.20;;
67554;SDS011;54385;53.516;49.456;2024-02-21T03:15:42;3.05;;;2.10;;
67554;SDS011;54385;53.516;49.456;2024-02-21T03:18:08;3.35;;;1.95;;
67554;SDS011;54385;53.516;49.456;2024-02-21T03:20:35;3.45;;;2.25;;
67554;SDS011;54385;53.516;49.456;2024-02-21T03:23:01;2.75;;;2.03;;
67554;SDS011;54385;53.516;49.456;2024-02-21T03:25:27;3.97;;;2.42;;
67554;SDS011;54385;53.516;49.456;2024-02-21T03:27:54;3.08;;;2.40;;
67554;SDS011;54385;53.516;49.456;2024-02-21T03:30:21;3.40;;;2.47;;
67554;SDS011;54385;53.516;49.456;2024-02-21T03:32:47;3.63;;;2.60;;
67554;SDS011;54385;53.516;49.456;2024-02-21T03:35:14;3.47;;;2.38;;
67554;SDS011;54385;53.516;49.456;2024-02-21T03:37:40;3.22;;;2.28;;
67554;SDS011;54385;53.516;49.456;2024-02-21T03:40:10;3.40;;;2.83;;
67554;SDS011;54385;53.516;49.456;2024-02-21T03:42:37;4.15;;;2.95;;
67554;SDS011;54385;53.516;49.456;2024-02-21T03:45:05;3.15;;;2.40;;
67554;SDS011;54385;53.516;49.456;2024-02-21T03:47:32;5.47;;;2.83;;
67554;SDS011;54385;53.516;49.456;2024-02-21T03:49:58;6.35;;;3.08;;
67554;SDS011;54385;53.516;49.456;2024-02-21T03:52:25;4.47;;;2.72;;
67554;SDS011;54385;53.516;49.456;2024-02-21T03:54:52;4.22;;;2.60;;
67554;SDS011;54385;53.516;49.456;2024-02-21T03:57:23;3.88;;;2.60;;
67554;SDS011;54385;53.516;49.456;2024-02-21T03:59:50;4.93;;;3.13;;
67554;SDS011;54385;53.516;49.456;2024-02-21T04:02:25;3.97;;;2.72;;
67554;SDS011;54385;53.516;49.456;2024-02-21T04:04:51;3.38;;;2.80;;
67554;SDS011;54385;53.516;49.456;2024-02-21T04:07:18;5.10;;;2.85;;
67554;SDS011;54385;53.516;49.456;2024-02-21T04:09:45;3.72;;;2.53;;
67554;SDS011;54385;53.516;49.456;2024-02-21T04:12:11;3.90;;;2.75;;
67554;SDS011;54385;53.516;49.456;2024-02-21T04:14:38;4.93;;;2.95;;
67554;SDS011;54385;53.516;49.456;2024-02-21T04:17:05;4.30;;;2.95;;
67554;SDS011;54385;53.516;49.456;2024-02-21T04:19:36;5.72;;;2.88;;
67554;SDS011;54385;53.516;49.456;2024-02-21T04:22:12;6.47;;;2.58;;
67554;SDS011;54385;53.516;49.456;2024-02-21T04:24:42;5.82;;;3.10;;
67554;SDS011;54385;53.516;49.456;2024-02-21T04:27:09;6.70;;;3.20;;
67554;SDS011;54385;53.516;49.456;2024-02-21T04:29:36;4.38;;;3.47;;
67554;SDS011;54385;53.516;49.456;2024-02-21T04:32:03;8.18;;;3.20;;
67554;SDS011;54385;53.516;49.456;2024-02-21T04:34:31;10.20;;;3.00;;
67554;SDS011;54385;53.516;49.456;2024-02-21T04:37:00;8.55;;;3.10;;
67554;SDS011;54385;53.516;49.456;2024-02-21T04:39:30;6.43;;;3.00;;
67554;SDS011;54385;53.516;49.456;2024-02-21T04:41:58;6.43;;;3.60;;
67554;SDS011;54385;53.516;49.456;2024-02-21T04:44:26;7.57;;;3.42;;
67554;SDS011;54385;53.516;49.456;2024-02-21T04:46:53;8.73;;;3.13;;
67554;SDS011;54385;53.516;49.456;2024-02-21T04:49:24;5.18;;;2.53;;
67554;SDS011;54385;53.516;49.456;2024-02-21T04:51:52;5.53;;;3.35;;
67554;SDS011;54385;53.516;49.456;2024-02-21T04:54:18;6.30;;;3.42;;
67554;SDS011;54385;53.516;49.456;2024-02-21T04:56:46;5.93;;;3.38;;
67554;SDS011;54385;53.516;49.456;2024-02-21T04:59:17;6.68;;;3.35;;
67554;SDS011;54385;53.516;49.456;2024-02-21T05:01:46;6.32;;;3.20;;
67554;SDS011;54385;53.516;49.456;2024-02-21T05:04:12;8.73;;;3.33;;
67554;SDS011;54385;53.516;49.456;2024-02-21T05:06:47;9.38;;;3.25;;
67554;SDS011;54385;53.516;49.456;2024-02-21T05:09:34;6.68;;;3.17;;
67554;SDS011;54385;53.516;49.456;2024-02-21T05:12:00;6.18;;;3.17;;
67554;SDS011;54385;53.516;49.456;2024-02-21T05:14:30;4.10;;;2.97;;
67554;SDS011;54385;53.516;49.456;2024-02-21T05:16:57;5.22;;;2.92;;
67554;SDS011;54385;53.516;49.456;2024-02-21T05:19:25;5.60;;;3.35;;
67554;SDS011;54385;53.516;49.456;2024-02-21T05:21:52;4.57;;;3.03;;
67554;SDS011;54385;53.516;49.456;2024-02-21T05:24:19;7.03;;;3.30;;
67554;SDS011;54385;53.516;49.456;2024-02-21T05:26:46;5.50;;;3.20;;
67554;SDS011;54385;53.516;49.456;2024-02-21T05:29:13;5.13;;;3.05;;
67554;SDS011;54385;53.516;49.456;2024-02-21T05:31:54;4.75;;;3.28;;
67554;SDS011;54385;53.516;49.456;2024-02-21T05:34:23;4.93;;;3.35;;
67554;SDS011;54385;53.516;49.456;2024-02-21T05:36:50;4.82;;;3.50;;
67554;SDS011;54385;53.516;49.456;2024-02-21T05:39:21;5.88;;;3.25;;
67554;SDS011;54385;53.516;49.456;2024-02-21T05:41:51;5.03;;;3.53;;
67554;SDS011;54385;53.516;49.456;2024-02-21T05:44:19;5.22;;;3.10;;
67554;SDS011;54385;53.516;49.456;2024-02-21T05:46:47;4.85;;;3.38;;
67554;SDS011;54385;53.516;49.456;2024-02-21T05:49:14;5.20;;;3.38;;
67554;SDS011;54385;53.516;49.456;2024-02-21T05:51:41;5.88;;;3.58;;
67554;SDS011;54385;53.516;49.456;2024-02-21T05:54:08;4.63;;;3.60;;
67554;SDS011;54385;53.516;49.456;2024-02-21T05:56:35;5.15;;;3.20;;
67554;SDS011;54385;53.516;49.456;2024-02-21T05:59:01;5.03;;;3.50;;
67554;SDS011;54385;53.516;49.456;2024-02-21T06:01:28;6.82;;;3.58;;
67554;SDS011;54385;53.516;49.456;2024-02-21T06:03:57;5.88;;;3.35;;
67554;SDS011;54385;53.516;49.456;2024-02-21T06:06:24;5.07;;;3.58;;
67554;SDS011;54385;53.516;49.456;2024-02-21T06:08:50;5.63;;;3.92;;
67554;SDS011;54385;53.516;49.456;2024-02-21T06:11:18;5.78;;;3.38;;
67554;SDS011;54385;53.516;49.456;2024-02-21T06:13:47;6.82;;;3.88;;
67554;SDS011;54385;53.516;49.456;2024-02-21T06:16:16;6.88;;;3.83;;
67554;SDS011;54385;53.516;49.456;2024-02-21T06:18:43;5.72;;;3.85;;
67554;SDS011;54385;53.516;49.456;2024-02-21T06:21:09;5.80;;;3.63;;
67554;SDS011;54385;53.516;49.456;2024-02-21T06:23:37;4.97;;;4.03;;
67554;SDS011;54385;53.516;49.456;2024-02-21T06:26:04;5.88;;;4.03;;
67554;SDS011;54385;53.516;49.456;2024-02-21T06:28:40;5.97;;;3.50;;
67554;SDS011;54385;53.516;49.456;2024-02-21T06:31:21;6.70;;;3.60;;
67554;SDS011;54385;53.516;49.456;2024-02-21T06:33:47;7.72;;;3.78;;
67554;SDS011;54385;53.516;49.456;2024-02-21T06:36:17;6.03;;;3.70;;
67554;SDS011;54385;53.516;49.456;2024-02-21T06:38:45;7.80;;;3.90;;
67554;SDS011;54385;53.516;49.456;2024-02-21T06:41:17;4.75;;;3.25;;
67554;SDS011;54385;53.516;49.456;2024-02-21T06:43:45;5.55;;;3.55;;
67554;SDS011;54385;53.516;49.456;2024-02-21T06:46:25;5.35;;;3.60;;
67554;SDS011;54385;53.516;49.456;2024-02-21T06:48:54;5.80;;;4.03;;
67554;SDS011;54385;53.516;49.456;2024-02-21T06:51:26;6.60;;;4.05;;
67554;SDS011;54385;53.516;49.456;2024-02-21T06:53:53;4.63;;;3.70;;
67554;SDS011;54385;53.516;49.456;2024-02-21T06:56:22;5.53;;;3.28;;
67554;SDS011;54385;53.516;49.456;2024-02-21T06:58:54;5.60;;;3.33;;
67554;SDS011;54385;53.516;49.456;2024-02-21T07:01:21;4.28;;;3.20;;
67554;SDS011;54385;53.516;49.456;2024-02-21T07:03:48;4.53;;;3.35;;
67554;SDS011;54385;53.516;49.456;2024-02-21T07:06:15;4.90;;;3.58;;
67554;SDS011;54385;53.516;49.456;2024-02-21T07:08:41;5.30;;;3.55;;
67554;SDS011;54385;53.516;49.456;2024-02-21T07:11:08;6.13;;;3.70;;
67554;SDS011;54385;53.516;49.456;2024-02-21T07:13:37;6.93;;;3.63;;
67554;SDS011;54385;53.516;49.456;2024-02-21T07:16:04;5.35;;;3.42;;
67554;SDS011;54385;53.516;49.456;2024-02-21T07:18:38;4.85;;;3.58;;
67554;SDS011;54385;53.516;49.456;2024-02-21T07:21:05;4.35;;;3.40;;
67554;SDS011;54385;53.516;49.456;2024-02-21T07:23:35;5.35;;;3.80;;
67554;SDS011;54385;53.516;49.456;2024-02-21T07:26:02;5.10;;;3.50;;
67554;SDS011;54385;53.516;49.456;2024-02-21T07:28:32;4.03;;;3.42;;
67554;SDS011;54385;53.516;49.456;2024-02-21T07:30:59;5.38;;;3.63;;
67554;SDS011;54385;53.516;49.456;2024-02-21T07:33:26;6.82;;;4.10;;
67554;SDS011;54385;53.516;49.456;2024-02-21T07:35:56;9.10;;;3.47;;
67554;SDS011;54385;53.516;49.456;2024-02-21T07:38:23;5.60;;;3.60;;
67554;SDS011;54385;53.516;49.456;2024-02-21T07:40:49;5.78;;;3.63;;
67554;SDS011;54385;53.516;49.456;2024-02-21T07:43:19;5.20;;;3.30;;
67554;SDS011;54385;53.516;49.456;2024-02-21T07:45:52;7.30;;;3.95;;
67554;SDS011;54385;53.516;49.456;2024-02-21T07:48:21;4.78;;;3.67;;
67554;SDS011;54385;53.516;49.456;2024-02-21T07:50:52;4.93;;;3.28;;
67554;SDS011;54385;53.516;49.456;2024-02-21T07:53:19;4.03;;;3.08;;
67554;SDS011;54385;53.516;49.456;2024-02-21T07:55:46;4.93;;;2.95;;
67554;SDS011;54385;53.516;49.456;2024-02-21T07:58:17;4.85;;;3.05;;
67554;SDS011;54385;53.516;49.456;2024-02-21T08:00:48;4.30;;;2.88;;
67554;SDS011;54385;53.516;49.456;2024-02-21T08:03:20;6.15;;;3.08;;
67554;SDS011;54385;53.516;49.456;2024-02-21T08:05:46;5.63;;;3.20;;
67554;SDS011;54385;53.516;49.456;2024-02-21T08:08:13;4.50;;;3.20;;
67554;SDS011;54385;53.516;49.456;2024-02-21T08:10:46;4.20;;;2.65;;
67554;SDS011;54385;53.516;49.456;2024-02-21T08:13:13;4.60;;;2.92;;
67554;SDS011;54385;53.516;49.456;2024-02-21T08:15:40;6.10;;;3.20;;
67554;SDS011;54385;53.516;49.456;2024-02-21T08:18:08;6.53;;;3.25;;
67554;SDS011;54385;53.516;49.456;2024-02-21T08:20:41;4.40;;;3.10;;
67554;SDS011;54385;53.516;49.456;2024-02-21T08:23:07;5.30;;;2.67;;
67554;SDS011;54385;53.516;49.456;2024-02-21T08:25:39;5.43;;;2.95;;
67554;SDS011;54385;53.516;49.456;2024-02-21T08:28:14;6.05;;;3.28;;
67554;SDS011;54385;53.516;49.456;2024-02-21T08:30:41;4.03;;;3.00;;
67554;SDS011;54385;53.516;49.456;2024-02-21T08:33:16;4.88;;;2.80;;
67554;SDS011;54385;53.516;49.456;2024-02-21T08:35:52;3.88;;;2.67;;
67554;SDS011;54385;53.516;49.456;2024-02-21T08:38:19;4.80;;;3.08;;
67554;SDS011;54385;53.516;49.456;2024-02-21T08:40:46;5.55;;;2.95;;
67554;SDS011;54385;53.516;49.456;2024-02-21T08:43:25;6.03;;;3.20;;
67554;SDS011;54385;53.516;49.456;2024-02-21T08:45:59;4.43;;;2.83;;
67554;SDS011;54385;53.516;49.456;2024-02-21T08:48:26;4.90;;;3.00;;
67554;SDS011;54385;53.516;49.456;2024-02-21T08:50:52;4.45;;;2.90;;
67554;SDS011;54385;53.516;49.456;2024-02-21T08:53:25;4.57;;;3.08;;
67554;SDS011;54385;53.516;49.456;2024-02-21T08:55:54;4.22;;;3.13;;
67554;SDS011;54385;53.516;49.456;2024-02-21T08:58:27;3.53;;;2.45;;
67554;SDS011;54385;53.516;49.456;2024-02-21T09:01:22;4.55;;;2.97;;
67554;SDS011;54385;53.516;49.456;2024-02-21T09:03:49;5.07;;;2.90;;
67554;SDS011;54385;53.516;49.456;2024-02-21T09:06:22;4.03;;;2.80;;
67554;SDS011;54385;53.516;49.456;2024-02-21T09:08:49;5.43;;;2.97;;
67554;SDS011;54385;53.516;49.456;2024-02-21T09:11:16;4.00;;;2.53;;
67554;SDS011;54385;53.516;49.456;2024-02-21T09:13:43;3.50;;;2.58;;
67554;SDS011;54385;53.516;49.456;2024-02-21T09:16:12;3.97;;;2.72;;
67554;SDS011;54385;53.516;49.456;2024-02-21T09:18:40;5.40;;;3.13;;
67554;SDS011;54385;53.516;49.456;2024-02-21T09:21:11;3.85;;;2.72;;
67554;SDS011;54385;53.516;49.456;2024-02-21T09:23:37;6.28;;;2.70;;
67554;SDS011;54385;53.516;49.456;2024-02-21T09:26:04;5.80;;;3.08;;
67554;SDS011;54385;53.516;49.456;2024-02-21T09:28:31;3.70;;;2.70;;
67554;SDS011;54385;53.516;49.456;2024-02-21T09:31:01;4.50;;;2.60;;
67554;SDS011;54385;53.516;49.456;2024-02-21T09:33:37;3.22;;;2.40;;
67554;SDS011;54385;53.516;49.456;2024-02-21T09:36:19;4.03;;;2.40;;
67554;SDS011;54385;53.516;49.456;2024-02-21T09:38:55;5.57;;;2.80;;
67554;SDS011;54385;53.516;49.456;2024-02-21T09:41:25;5.07;;;3.05;;
67554;SDS011;54385;53.516;49.456;2024-02-21T09:43:56;3.30;;;2.63;;
67554;SDS011;54385;53.516;49.456;2024-02-21T09:46:30;5.07;;;2.45;;
67554;SDS011;54385;53.516;49.456;2024-02-21T09:49:31;8.30;;;2.88;;
67554;SDS011;54385;53.516;49.456;2024-02-21T09:54:47;5.40;;;2.60;;
67554;SDS011;54385;53.516;49.456;2024-02-21T09:57:14;5.22;;;2.85;;
67554;SDS011;54385;53.516;49.456;2024-02-21T09:59:42;3.92;;;2.22;;
67554;SDS011;54385;53.516;49.456;2024-02-21T10:02:09;3.67;;;2.72;;
67554;SDS011;54385;53.516;49.456;2024-02-21T10:04:39;4.57;;;2.70;;
67554;SDS011;54385;53.516;49.456;2024-02-21T10:07:10;4.22;;;2.88;;
67554;SDS011;54385;53.516;49.456;2024-02-21T10:09:45;3.92;;;2.55;;
67554;SDS011;54385;53.516;49.456;2024-02-21T10:12:15;4.20;;;2.65;;
67554;SDS011;54385;53.516;49.456;2024-02-21T10:14:45;5.68;;;2.80;;
67554;SDS011;54385;53.516;49.456;2024-02-21T10:17:16;3.90;;;2.70;;
67554;SDS011;54385;53.516;49.456;2024-02-21T10:22:48;5.80;;;3.20;;
67554;SDS011;54385;53.516;49.456;2024-02-21T10:27:52;8.05;;;3.60;;
67554;SDS011;54385;53.516;49.456;2024-02-21T10:30:21;5.20;;;3.40;;
67554;SDS011;54385;53.516;49.456;2024-02-21T10:32:51;5.95;;;3.10;;
67554;SDS011;54385;53.516;49.456;2024-02-21T10:37:54;5.43;;;3.30;;
67554;SDS011;54385;53.516;49.456;2024-02-21T10:40:25;5.45;;;3.13;;
67554;SDS011;54385;53.516;49.456;2024-02-21T10:42:59;4.63;;;2.97;;
67554;SDS011;54385;53.516;49.456;2024-02-21T10:45:30;3.97;;;3.00;;
67554;SDS011;54385;53.516;49.456;2024-02-21T10:48:20;4.50;;;3.30;;
67554;SDS011;54385;53.516;49.456;2024-02-21T10:51:09;5.18;;;3.50;;
67554;SDS011;54385;53.516;49.456;2024-02-21T10:56:39;6.28;;;2.95;;
67554;SDS011;54385;53.516;49.456;2024-02-21T10:59:07;4.55;;;2.72;;
67554;SDS011;54385;53.516;49.456;2024-02-21T11:01:34;4.80;;;3.10;;
67554;SDS011;54385;53.516;49.456;2024-02-21T11:04:05;5.07;;;2.85;;
67554;SDS011;54385;53.516;49.456;2024-02-21T11:06:34;3.70;;;2.85;;
67554;SDS011;54385;53.516;49.456;2024-02-21T11:09:06;4.53;;;3.15;;
67554;SDS011;54385;53.516;49.456;2024-02-21T11:11:34;4.50;;;3.42;;
67554;SDS011;54385;53.516;49.456;2024-02-21T11:14:06;3.90;;;2.83;;
67554;SDS011;54385;53.516;49.456;2024-02-21T11:16:39;5.28;;;2.90;;
67554;SDS011;54385;53.516;49.456;2024-02-21T11:19:21;5.60;;;3.05;;
67554;SDS011;54385;53.516;49.456;2024-02-21T11:21:48;5.95;;;3.00;;
67554;SDS011;54385;53.516;49.456;2024-02-21T11:24:34;4.30;;;3.05;;
67554;SDS011;54385;53.516;49.456;2024-02-21T11:27:13;6.60;;;3.38;;
67554;SDS011;54385;53.516;49.456;2024-02-21T11:29:48;4.38;;;2.65;;
67554;SDS011;54385;53.516;49.456;2024-02-21T11:32:19;4.10;;;2.80;;
67554;SDS011;54385;53.516;49.456;2024-02-21T11:37:27;3.85;;;2.67;;
67554;SDS011;54385;53.516;49.456;2024-02-21T11:39:55;4.75;;;2.70;;
67554;SDS011;54385;53.516;49.456;2024-02-21T11:42:25;4.05;;;2.63;;
67554;SDS011;54385;53.516;49.456;2024-02-21T11:44:57;3.88;;;2.90;;
67554;SDS011;54385;53.516;49.456;2024-02-21T11:47:24;3.85;;;3.00;;
67554;SDS011;54385;53.516;49.456;2024-02-21T11:49:51;3.47;;;2.30;;
67554;SDS011;54385;53.516;49.456;2024-02-21T11:52:21;3.75;;;2.45;;
67554;SDS011;54385;53.516;49.456;2024-02-21T11:54:51;3.85;;;2.83;;
67554;SDS011;54385;53.516;49.456;2024-02-21T11:57:30;4.75;;;2.90;;
67554;SDS011;54385;53.516;49.456;2024-02-21T11:59:57;4.35;;;2.42;;
67554;SDS011;54385;53.516;49.456;2024-02-21T12:02:24;3.53;;;2.42;;
67554;SDS011;54385;53.516;49.456;2024-02-21T12:04:55;4.90;;;2.92;;
67554;SDS011;54385;53.516;49.456;2024-02-21T12:07:22;3.67;;;2.42;;
67554;SDS011;54385;53.516;49.456;2024-02-21T12:09:50;4.80;;;2.53;;
67554;SDS011;54385;53.516;49.456;2024-02-21T12:12:19;3.88;;;2.42;;
67554;SDS011;54385;53.516;49.456;2024-02-21T12:14:46;4.18;;;2.50;;
67554;SDS011;54385;53.516;49.456;2024-02-21T12:17:12;4.32;;;2.70;;
67554;SDS011;54385;53.516;49.456;2024-02-21T12:19:39;4.28;;;2.35;;
67554;SDS011;54385;53.516;49.456;2024-02-21T12:22:08;4.40;;;2.33;;
67554;SDS011;54385;53.516;49.456;2024-02-21T12:24:42;3.22;;;2.65;;
67554;SDS011;54385;53.516;49.456;2024-02-21T12:27:16;3.58;;;2.47;;
67554;SDS011;54385;53.516;49.456;2024-02-21T12:29:45;5.20;;;2.97;;
67554;SDS011;54385;53.516;49.456;2024-02-21T12:32:12;5.18;;;2.80;;
67554;SDS011;54385;53.516;49.456;2024-02-21T12:34:44;4.47;;;2.95;;
67554;SDS011;54385;53.516;49.456;2024-02-21T12:37:11;4.47;;;2.88;;
67554;SDS011;54385;53.516;49.456;2024-02-21T12:39:49;4.72;;;2.80;;
67554;SDS011;54385;53.516;49.456;2024-02-21T12:42:24;3.20;;;2.58;;
67554;SDS011;54385;53.516;49.456;2024-02-21T12:45:00;3.03;;;2.20;;
67554;SDS011;54385;53.516;49.456;2024-02-21T12:47:28;4.57;;;2.50;;
67554;SDS011;54385;53.516;49.456;2024-02-21T12:49:55;3.97;;;2.83;;
67554;SDS011;54385;53.516;49.456;2024-02-21T12:52:22;3.75;;;2.58;;
67554;SDS011;54385;53.516;49.456;2024-02-21T12:54:48;4.05;;;2.75;;
67554;SDS011;54385;53.516;49.456;2024-02-21T12:57:17;4.03;;;2.58;;
67554;SDS011;54385;53.516;49.456;2024-02-21T12:59:43;4.60;;;2.95;;
67554;SDS011;54385;53.516;49.456;2024-02-21T13:02:10;3.90;;;2.85;;
67554;SDS011;54385;53.516;49.456;2024-02-21T13:04:39;3.60;;;2.50;;
67554;SDS011;54385;53.516;49.456;2024-02-21T13:07:07;4.18;;;2.50;;
67554;SDS011;54385;53.516;49.456;2024-02-21T13:09:34;3.60;;;2.58;;
67554;SDS011;54385;53.516;49.456;2024-02-21T13:12:00;3.65;;;2.58;;
67554;SDS011;54385;53.516;49.456;2024-02-21T13:14:28;3.05;;;2.55;;
67554;SDS011;54385;53.516;49.456;2024-02-21T13:16:54;3.97;;;2.40;;
67554;SDS011;54385;53.516;49.456;2024-02-21T13:19:21;4.05;;;2.78;;
67554;SDS011;54385;53.516;49.456;2024-02-21T13:21:47;4.07;;;2.65;;
67554;SDS011;54385;53.516;49.456;2024-02-21T13:24:13;3.42;;;2.30;;
67554;SDS011;54385;53.516;49.456;2024-02-21T13:26:40;3.40;;;2.45;;
67554;SDS011;54385;53.516;49.456;2024-02-21T13:29:06;3.55;;;2.85;;
67554;SDS011;54385;53.516;49.456;2024-02-21T13:31:33;3.17;;;2.55;;
67554;SDS011;54385;53.516;49.456;2024-02-21T13:33:59;2.95;;;2.38;;
67554;SDS011;54385;53.516;49.456;2024-02-21T13:36:26;4.15;;;2.88;;
67554;SDS011;54385;53.516;49.456;2024-02-21T13:38:52;2.72;;;2.35;;
67554;SDS011;54385;53.516;49.456;2024-02-21T13:41:19;3.90;;;2.53;;
67554;SDS011;54385;53.516;49.456;2024-02-21T13:43:47;3.58;;;2.58;;
67554;SDS011;54385;53.516;49.456;2024-02-21T13:46:15;3.65;;;2.40;;
67554;SDS011;54385;53.516;49.456;2024-02-21T13:48:41;3.97;;;2.38;;
67554;SDS011;54385;53.516;49.456;2024-02-21T13:51:08;3.50;;;2.75;;
67554;SDS011;54385;53.516;49.456;2024-02-21T13:53:35;3.60;;;2.67;;
67554;SDS011;54385;53.516;49.456;2024-02-21T13:56:01;4.05;;;2.72;;
67554;SDS011;54385;53.516;49.456;2024-02-21T13:58:27;3.78;;;2.40;;
67554;SDS011;54385;53.516;49.456;2024-02-21T14:00:54;3.13;;;2.17;;
67554;SDS011;54385;53.516;49.456;2024-02-21T14:03:22;3.80;;;2.85;;
67554;SDS011;54385;53.516;49.456;2024-02-21T14:05:48;4.18;;;2.78;;
67554;SDS011;54385;53.516;49.456;2024-02-21T14:08:15;4.15;;;2.83;;
67554;SDS011;54385;53.516;49.456;2024-02-21T14:10:41;4.10;;;2.38;;
67554;SDS011;54385;53.516;49.456;2024-02-21T14:13:08;3.55;;;2.35;;
67554;SDS011;54385;53.516;49.456;2024-02-21T14:15:37;4.00;;;2.40;;
67554;SDS011;54385;53.516;49.456;2024-02-21T14:18:06;4.25;;;2.70;;
67554;SDS011;54385;53.516;49.456;2024-02-21T14:20:35;4.03;;;2.75;;
67554;SDS011;54385;53.516;49.456;2024-02-21T14:23:02;4.10;;;2.70;;
67554;SDS011;54385;53.516;49.456;2024-02-21T14:25:31;3.78;;;2.30;;
67554;SDS011;54385;53.516;49.456;2024-02-21T14:28:02;3.50;;;2.60;;
67554;SDS011;54385;53.516;49.456;2024-02-21T14:30:28;3.50;;;2.75;;
67554;SDS011;54385;53.516;49.456;2024-02-21T14:32:55;4.65;;;2.78;;
67554;SDS011;54385;53.516;49.456;2024-02-21T14:35:22;3.72;;;2.45;;
67554;SDS011;54385;53.516;49.456;2024-02-21T14:37:49;4.22;;;2.75;;
67554;SDS011;54385;53.516;49.456;2024-02-21T14:40:16;3.95;;;2.65;;
67554;SDS011;54385;53.516;49.456;2024-02-21T14:42:46;3.88;;;2.67;;
67554;SDS011;54385;53.516;49.456;2024-02-21T14:45:23;4.15;;;2.40;;
67554;SDS011;54385;53.516;49.456;2024-02-21T14:48:05;4.38;;;2.90;;
67554;SDS011;54385;53.516;49.456;2024-02-21T14:50:35;3.38;;;2.28;;
67554;SDS011;54385;53.516;49.456;2024-02-21T14:53:08;3.63;;;2.60;;
67554;SDS011;54385;53.516;49.456;2024-02-21T14:58:11;3.53;;;2.65;;
67554;SDS011;54385;53.516;49.456;2024-02-21T15:00:44;4.38;;;2.78;;
67554;SDS011;54385;53.516;49.456;2024-02-21T15:03:17;4.38;;;2.40;;